Time;durP1;ratioP1;P1;durP2;ratioP2;P2;SDS_P1;SDS_P2;PMS_P1;PMS_P2;Temp;Humidity;BMP_temperature;BMP_pressure;BME280_temperature;BME280_humidity;BME280_pressure;Samples;Min_cycle;Max_cycle;Signal;HPM_P1;HPM_P2
2021/10/05 00:01:28;;;;;;;29.67;16.27;;;13.60;99.90;;;;;;5070598;28;20395;-56
2021/10/05 00:03:54;;;;;;;36.95;17.25;;;13.50;99.90;;;;;;5070565;28;20399;-56
2021/10/05 00:06:21;;;;;;;32.08;17.88;;;13.50;99.90;;;;;;5071593;28;20447;-56
2021/10/05 00:08:46;;;;;;;29.55;16.67;;;13.50;99.90;;;;;;5071445;28;20806;-56
2021/10/05 00:11:12;;;;;;;34.10;18.03;;;13.50;99.90;;;;;;5070092;28;20868;-56
2021/10/05 00:13:38;;;;;;;31.80;18.55;;;13.40;99.90;;;;;;5071591;28;20375;-56
2021/10/05 00:16:04;;;;;;;38.17;18.83;;;13.40;99.90;;;;;;5070730;28;21254;-56
2021/10/05 00:18:30;;;;;;;35.70;19.73;;;13.40;99.90;;;;;;5071421;28;20399;-56
2021/10/05 00:20:56;;;;;;;35.25;18.67;;;13.40;99.90;;;;;;5069275;28;20898;-54
2021/10/05 00:23:22;;;;;;;37.63;19.70;;;13.40;99.90;;;;;;5071171;28;20434;-55
2021/10/05 00:25:47;;;;;;;33.85;19.10;;;13.40;99.90;;;;;;5070215;28;20920;-54
2021/10/05 00:28:13;;;;;;;34.15;17.98;;;13.50;99.90;;;;;;5069901;28;20414;-55
2021/10/05 00:30:39;;;;;;;30.85;17.38;;;13.50;99.90;;;;;;5071252;28;20718;-55
2021/10/05 00:33:05;;;;;;;33.88;18.40;;;13.50;99.90;;;;;;5070386;28;20975;-57
2021/10/05 00:35:31;;;;;;;33.10;17.57;;;13.50;99.90;;;;;;5070653;28;20398;-56
2021/10/05 00:37:56;;;;;;;36.20;17.88;;;13.50;99.90;;;;;;5070310;28;20384;-56
2021/10/05 00:40:22;;;;;;;33.40;18.00;;;13.50;99.90;;;;;;5070988;28;20393;-56
2021/10/05 00:42:48;;;;;;;32.33;17.83;;;13.60;99.90;;;;;;5070349;28;20403;-56
2021/10/05 00:45:14;;;;;;;34.28;18.30;;;13.50;99.90;;;;;;5070814;28;20380;-54
2021/10/05 00:47:41;;;;;;;30.50;17.10;;;13.50;99.90;;;;;;5070898;28;20383;-54
2021/10/05 00:50:08;;;;;;;33.35;18.02;;;13.50;99.90;;;;;;5068607;28;21015;-55
2021/10/05 00:52:35;;;;;;;33.30;18.33;;;13.60;99.90;;;;;;5070933;28;20386;-54
2021/10/05 00:55:02;;;;;;;35.45;19.35;;;13.60;99.90;;;;;;5069940;28;20414;-54
2021/10/05 00:57:28;;;;;;;30.52;17.90;;;13.70;99.90;;;;;;5070307;28;20399;-54
2021/10/05 00:59:54;;;;;;;32.57;18.83;;;13.70;99.90;;;;;;5069990;28;20441;-55
2021/10/05 01:02:20;;;;;;;34.00;18.10;;;13.70;99.90;;;;;;5070538;28;20452;-54
2021/10/05 01:04:46;;;;;;;32.17;18.27;;;13.60;99.90;;;;;;5069358;28;20420;-55
2021/10/05 01:07:16;;;;;;;31.83;17.67;;;13.60;99.90;;;;;;5069730;28;20840;-55
2021/10/05 01:09:44;;;;;;;31.05;18.52;;;13.60;99.90;;;;;;5070151;28;20366;-55
2021/10/05 01:12:10;;;;;;;35.00;18.27;;;13.60;99.90;;;;;;5069319;28;20372;-55
2021/10/05 01:14:36;;;;;;;37.90;18.13;;;13.60;99.90;;;;;;5070687;28;20396;-54
2021/10/05 01:17:03;;;;;;;33.53;17.48;;;13.50;99.90;;;;;;5069321;28;20448;-56
2021/10/05 01:19:29;;;;;;;32.40;18.58;;;13.50;99.90;;;;;;5069842;28;20699;-56
2021/10/05 01:21:55;;;;;;;34.15;18.00;;;13.50;99.90;;;;;;5069269;28;20434;-55
2021/10/05 01:24:22;;;;;;;32.13;18.30;;;13.40;99.90;;;;;;5070134;28;20414;-55
2021/10/05 01:26:48;;;;;;;34.97;18.58;;;13.40;99.90;;;;;;5069728;28;20412;-55
2021/10/05 01:29:17;;;;;;;37.78;17.70;;;13.50;99.90;;;;;;5070107;28;20383;-55
2021/10/05 01:31:45;;;;;;;36.70;17.50;;;13.50;99.90;;;;;;5070129;28;20384;-55
2021/10/05 01:34:11;;;;;;;31.52;17.33;;;13.60;99.90;;;;;;5068930;28;20742;-56
2021/10/05 01:36:38;;;;;;;34.78;18.40;;;13.60;99.90;;;;;;5069797;28;20480;-55
2021/10/05 01:39:19;;;;;;;29.07;16.60;;;13.70;99.90;;;;;;5069419;28;20380;-56
2021/10/05 01:41:45;;;;;;;31.77;17.20;;;13.70;99.90;;;;;;5069609;28;20395;-56
2021/10/05 01:44:11;;;;;;;31.23;18.25;;;13.60;99.90;;;;;;5069123;28;20499;-55
2021/10/05 01:46:36;;;;;;;36.40;17.80;;;13.70;99.90;;;;;;5070182;28;20420;-56
2021/10/05 01:49:02;;;;;;;30.23;17.60;;;13.70;99.90;;;;;;5068890;28;20381;-56
2021/10/05 01:51:28;;;;;;;33.33;18.40;;;13.70;99.90;;;;;;5069755;28;20833;-56
2021/10/05 01:53:54;;;;;;;28.58;16.60;;;13.60;99.90;;;;;;5068800;28;20470;-55
2021/10/05 01:56:19;;;;;;;33.07;18.20;;;13.60;99.90;;;;;;5069244;28;20412;-56
2021/10/05 01:58:45;;;;;;;29.02;17.88;;;13.70;99.90;;;;;;5069483;28;20376;-56
2021/10/05 02:01:10;;;;;;;32.17;17.40;;;13.70;99.90;;;;;;5069190;28;20371;-56
2021/10/05 02:03:36;;;;;;;34.37;17.20;;;13.70;99.90;;;;;;5069556;28;20404;-55
2021/10/05 02:08:50;;;;;;;38.15;19.25;;;13.70;99.90;;;;;;5069069;28;20395;-55
2021/10/05 02:11:16;;;;;;;34.50;17.60;;;13.60;99.90;;;;;;5069848;28;20857;-56
2021/10/05 02:13:42;;;;;;;37.90;19.35;;;13.50;99.90;;;;;;5069640;28;20379;-55
2021/10/05 02:16:09;;;;;;;40.47;19.20;;;13.40;99.90;;;;;;5068338;28;20383;-55
2021/10/05 02:18:55;;;;;;;42.50;19.85;;;13.40;99.90;;;;;;5069715;28;20892;-55
2021/10/05 02:21:29;;;;;;;58.28;20.67;;;13.40;99.90;;;;;;5068997;28;20469;-55
2021/10/05 02:26:59;;;;;;;36.08;18.30;;;13.30;99.90;;;;;;5069210;28;20445;-55
2021/10/05 02:29:25;;;;;;;34.83;18.60;;;13.30;99.90;;;;;;5069349;28;20900;-54
2021/10/05 02:31:54;;;;;;;34.83;17.90;;;13.20;99.90;;;;;;5067731;28;20387;-54
2021/10/05 02:34:20;;;;;;;30.95;16.70;;;13.30;99.90;;;;;;5068904;28;20382;-54
2021/10/05 02:36:46;;;;;;;31.75;17.27;;;13.20;99.90;;;;;;5069063;28;20384;-54
2021/10/05 02:39:12;;;;;;;30.90;16.17;;;13.30;99.90;;;;;;5068510;28;20380;-54
2021/10/05 02:41:38;;;;;;;34.72;17.77;;;13.50;99.90;;;;;;5069070;28;20398;-56
2021/10/05 02:44:04;;;;;;;29.17;16.60;;;13.50;99.90;;;;;;5073836;28;20883;-56
2021/10/05 02:46:30;;;;;;;29.77;16.00;;;13.60;99.90;;;;;;5078416;28;20399;-56
2021/10/05 02:48:56;;;;;;;32.65;16.45;;;13.60;99.90;;;;;;5075048;28;20371;-57
2021/10/05 02:51:21;;;;;;;31.13;16.98;;;13.60;99.90;;;;;;5089216;28;20461;-54
2021/10/05 02:53:47;;;;;;;29.93;16.73;;;13.60;99.90;;;;;;5070178;28;20486;-56
2021/10/05 02:56:13;;;;;;;30.00;17.00;;;13.60;99.90;;;;;;5068190;28;20926;-56
2021/10/05 02:58:39;;;;;;;29.60;16.30;;;13.60;99.90;;;;;;5069185;28;20376;-56
2021/10/05 03:01:04;;;;;;;30.73;15.65;;;13.60;99.90;;;;;;5068345;28;20711;-56
2021/10/05 03:03:30;;;;;;;33.37;17.50;;;13.70;99.90;;;;;;5068930;28;20443;-56
2021/10/05 03:05:56;;;;;;;29.50;15.98;;;13.60;99.90;;;;;;5068220;28;20399;-56
2021/10/05 03:08:24;;;;;;;28.60;15.90;;;13.50;99.90;;;;;;5068629;28;20861;-56
2021/10/05 03:10:50;;;;;;;25.77;14.90;;;13.50;99.90;;;;;;5068408;28;20392;-56
2021/10/05 03:13:15;;;;;;;26.02;14.40;;;13.60;99.90;;;;;;5068451;28;20522;-56
2021/10/05 03:15:41;;;;;;;26.20;14.40;;;13.60;99.90;;;;;;5069021;28;20900;-56
2021/10/05 03:18:06;;;;;;;26.87;13.47;;;13.60;99.90;;;;;;5068117;28;20376;-56
2021/10/05 03:20:32;;;;;;;26.83;14.57;;;13.50;99.90;;;;;;5067777;28;20391;-56
2021/10/05 03:22:58;;;;;;;24.63;14.40;;;13.50;99.90;;;;;;5067992;28;20436;-56
2021/10/05 03:25:23;;;;;;;25.97;14.10;;;13.50;99.90;;;;;;5069091;28;20398;-54
2021/10/05 03:27:49;;;;;;;27.50;13.40;;;13.50;99.90;;;;;;5067496;28;20395;-56
2021/10/05 03:30:15;;;;;;;24.73;13.60;;;13.50;99.90;;;;;;5081007;28;20383;-56
2021/10/05 03:32:40;;;;;;;23.38;13.10;;;13.40;99.90;;;;;;5092644;28;20381;-56
2021/10/05 03:35:06;;;;;;;25.57;14.20;;;13.40;99.90;;;;;;5091570;28;20366;-57
2021/10/05 03:37:32;;;;;;;24.10;13.65;;;13.40;99.90;;;;;;5092589;28;20374;-56
2021/10/05 03:39:58;;;;;;;24.77;13.40;;;13.50;99.90;;;;;;5091267;28;20381;-56
2021/10/05 03:42:23;;;;;;;25.08;13.60;;;13.50;99.90;;;;;;5090836;28;20451;-56
2021/10/05 03:44:50;;;;;;;24.40;13.13;;;13.50;99.90;;;;;;5091634;28;20406;-57
2021/10/05 03:47:16;;;;;;;26.83;13.52;;;13.40;99.90;;;;;;5091785;28;20370;-56
2021/10/05 03:49:42;;;;;;;23.75;13.00;;;13.50;99.90;;;;;;5091756;28;20418;-56
2021/10/05 03:52:07;;;;;;;22.40;13.30;;;13.60;99.90;;;;;;5091350;28;20795;-57
2021/10/05 03:54:34;;;;;;;24.70;14.07;;;13.60;99.90;;;;;;5092627;28;20389;-56
2021/10/05 03:57:02;;;;;;;25.08;13.75;;;13.60;99.90;;;;;;5090697;28;20501;-56
2021/10/05 03:59:27;;;;;;;25.27;14.25;;;13.50;99.90;;;;;;5091756;28;20413;-57
2021/10/05 04:01:53;;;;;;;25.00;13.70;;;13.50;99.90;;;;;;5091181;28;20860;-56
2021/10/05 04:04:19;;;;;;;25.20;14.33;;;13.60;99.90;;;;;;5091586;28;20444;-56
2021/10/05 04:06:45;;;;;;;27.27;14.35;;;13.60;99.90;;;;;;5091725;28;20848;-56
2021/10/05 04:09:10;;;;;;;25.40;14.07;;;13.60;99.90;;;;;;5091011;28;20453;-56
2021/10/05 04:11:36;;;;;;;29.88;14.20;;;13.60;99.90;;;;;;5087270;28;20386;-56
2021/10/05 04:14:02;;;;;;;30.87;15.10;;;13.70;99.90;;;;;;5078852;28;20411;-56
2021/10/05 04:16:28;;;;;;;27.65;13.90;;;13.70;99.90;;;;;;5082152;28;20376;-56
2021/10/05 04:18:54;;;;;;;29.07;15.40;;;13.70;99.90;;;;;;5070541;28;20387;-56
2021/10/05 04:21:19;;;;;;;28.90;15.13;;;13.70;99.90;;;;;;5090025;28;20443;-56
2021/10/05 04:23:45;;;;;;;27.70;14.88;;;13.60;99.90;;;;;;5091482;28;20406;-56
2021/10/05 04:26:11;;;;;;;29.48;15.23;;;13.60;99.90;;;;;;5091071;28;20456;-56
2021/10/05 04:28:37;;;;;;;28.05;14.60;;;13.60;99.90;;;;;;5091541;28;20839;-56
2021/10/05 04:31:03;;;;;;;28.20;14.90;;;13.50;99.90;;;;;;5090904;28;20374;-56
2021/10/05 04:33:29;;;;;;;34.30;14.88;;;13.50;99.90;;;;;;5091210;28;21018;-56
2021/10/05 04:35:55;;;;;;;30.40;14.77;;;13.40;99.90;;;;;;5090490;28;20473;-56
2021/10/05 04:38:21;;;;;;;30.05;14.70;;;13.40;99.90;;;;;;5091112;28;20386;-56
2021/10/05 04:40:46;;;;;;;27.77;14.67;;;13.40;99.90;;;;;;5090518;28;20378;-56
2021/10/05 04:43:12;;;;;;;30.00;14.37;;;13.40;99.90;;;;;;5088933;28;20463;-56
2021/10/05 04:45:37;;;;;;;28.77;14.60;;;13.40;99.90;;;;;;5090377;28;20402;-56
2021/10/05 04:48:07;;;;;;;27.20;13.30;;;13.50;99.90;;;;;;5089794;28;20732;-56
2021/10/05 04:50:34;;;;;;;27.55;14.00;;;13.60;99.90;;;;;;5089180;28;20382;-54
2021/10/05 04:52:59;;;;;;;26.65;13.68;;;13.60;99.90;;;;;;5090162;28;20386;-56
2021/10/05 04:55:25;;;;;;;24.33;13.40;;;13.60;99.90;;;;;;5090808;28;20844;-56
2021/10/05 04:57:51;;;;;;;30.73;14.55;;;13.60;99.90;;;;;;5090255;28;20421;-56
2021/10/05 05:00:17;;;;;;;24.88;14.35;;;13.60;99.90;;;;;;5090363;28;20378;-56
2021/10/05 05:02:42;;;;;;;27.90;14.30;;;13.50;99.90;;;;;;5089387;28;20390;-56
2021/10/05 05:05:08;;;;;;;26.70;14.80;;;13.50;99.90;;;;;;5089576;28;20386;-56
2021/10/05 05:07:34;;;;;;;30.25;14.68;;;13.60;99.90;;;;;;5090787;28;20539;-56
2021/10/05 05:10:02;;;;;;;27.73;14.68;;;13.60;99.90;;;;;;5089540;28;20386;-56
2021/10/05 05:12:28;;;;;;;31.20;14.80;;;13.60;99.90;;;;;;5089806;28;20386;-56
2021/10/05 05:14:53;;;;;;;30.20;14.85;;;13.50;99.90;;;;;;5089980;28;20389;-56
2021/10/05 05:17:19;;;;;;;28.13;14.30;;;13.40;99.90;;;;;;5090032;28;20378;-56
2021/10/05 05:19:45;;;;;;;30.85;14.75;;;13.60;99.90;;;;;;5090285;28;20724;-54
2021/10/05 05:22:11;;;;;;;29.40;14.97;;;13.50;99.90;;;;;;5089305;28;20387;-54
2021/10/05 05:24:36;;;;;;;30.52;14.60;;;13.50;99.90;;;;;;5090345;28;20447;-56
2021/10/05 05:27:02;;;;;;;33.03;16.10;;;13.60;99.90;;;;;;5084373;28;20455;-56
2021/10/05 05:29:28;;;;;;;32.20;15.05;;;13.60;99.90;;;;;;5080864;28;20389;-56
2021/10/05 05:31:57;;;;;;;27.97;14.57;;;13.60;99.90;;;;;;5087504;28;20443;-56
2021/10/05 05:34:24;;;;;;;26.80;14.50;;;13.60;99.90;;;;;;5083425;28;20394;-55
2021/10/05 05:36:50;;;;;;;26.60;13.48;;;13.60;99.90;;;;;;5073166;28;20464;-56
2021/10/05 05:39:16;;;;;;;32.50;15.63;;;13.60;99.90;;;;;;5068883;28;20372;-54
2021/10/05 05:41:45;;;;;;;34.35;14.70;;;13.40;99.90;;;;;;5069736;28;20397;-54
2021/10/05 05:44:14;;;;;;;32.45;14.00;;;13.40;99.90;;;;;;5068935;28;20403;-54
2021/10/05 05:46:41;;;;;;;33.60;14.02;;;13.40;99.90;;;;;;5069339;28;20384;-54
2021/10/05 05:49:07;;;;;;;32.33;15.07;;;13.40;99.90;;;;;;5077435;28;20831;-54
2021/10/05 05:51:33;;;;;;;27.38;13.45;;;13.40;99.90;;;;;;5088402;28;20382;-54
2021/10/05 05:53:59;;;;;;;32.92;14.60;;;13.40;99.90;;;;;;5088155;28;20456;-54
2021/10/05 05:56:25;;;;;;;30.30;13.80;;;13.40;99.90;;;;;;5087306;28;20500;-54
2021/10/05 05:58:55;;;;;;;28.33;13.25;;;13.40;99.90;;;;;;5089139;28;20382;-54
2021/10/05 06:01:21;;;;;;;32.45;15.02;;;13.40;99.90;;;;;;5089354;28;20386;-54
2021/10/05 06:03:49;;;;;;;29.75;13.70;;;13.40;99.90;;;;;;5088754;28;20436;-54
2021/10/05 06:06:16;;;;;;;30.58;13.73;;;13.40;99.90;;;;;;5088576;28;20390;-54
2021/10/05 06:08:42;;;;;;;32.10;14.00;;;13.30;99.90;;;;;;5089026;28;20452;-54
2021/10/05 06:11:08;;;;;;;32.33;13.60;;;13.30;99.90;;;;;;5088350;28;20409;-54
2021/10/05 06:13:34;;;;;;;28.60;13.80;;;13.30;99.90;;;;;;5089244;28;20384;-54
2021/10/05 06:15:59;;;;;;;31.47;14.47;;;13.30;99.90;;;;;;5088025;28;20374;-54
2021/10/05 06:18:25;;;;;;;29.77;13.63;;;13.30;99.90;;;;;;5088386;28;20385;-54
2021/10/05 06:20:51;;;;;;;28.27;13.00;;;13.30;99.90;;;;;;5089493;28;20435;-54
2021/10/05 06:23:16;;;;;;;25.38;12.05;;;13.30;99.90;;;;;;5088259;28;20459;-54
2021/10/05 06:25:42;;;;;;;28.30;13.55;;;13.40;99.90;;;;;;5088962;28;20467;-54
2021/10/05 06:28:09;;;;;;;28.77;13.13;;;13.60;99.90;;;;;;5088544;28;20428;-54
2021/10/05 06:30:35;;;;;;;25.45;12.90;;;13.70;99.90;;;;;;5089203;28;20374;-56
2021/10/05 06:33:00;;;;;;;26.15;13.18;;;13.70;99.90;;;;;;5088736;28;20859;-56
2021/10/05 06:35:30;;;;;;;26.63;12.83;;;13.70;99.90;;;;;;5088952;28;20381;-56
2021/10/05 06:37:57;;;;;;;28.02;13.02;;;13.70;99.90;;;;;;5088463;28;20390;-56
2021/10/05 06:40:27;;;;;;;30.45;14.10;;;13.70;99.90;;;;;;5088728;28;20469;-57
2021/10/05 06:42:53;;;;;;;26.48;13.40;;;13.80;99.90;;;;;;5088674;28;20853;-56
2021/10/05 06:45:19;;;;;;;27.07;13.60;;;13.90;99.90;;;;;;5088430;28;20378;-56
2021/10/05 06:47:46;;;;;;;25.50;12.68;;;13.80;99.90;;;;;;5089262;28;20373;-56
2021/10/05 06:50:13;;;;;;;26.42;13.32;;;13.90;99.90;;;;;;5087917;28;20709;-55
2021/10/05 06:52:38;;;;;;;27.38;13.00;;;13.90;99.90;;;;;;5089458;28;20405;-57
2021/10/05 06:55:05;;;;;;;27.53;13.50;;;13.90;99.90;;;;;;5087966;28;20421;-57
2021/10/05 06:57:30;;;;;;;28.02;13.68;;;14.00;99.90;;;;;;5088341;28;20421;-57
2021/10/05 06:59:56;;;;;;;24.80;12.70;;;14.00;99.90;;;;;;5088373;28;20382;-57
2021/10/05 07:02:22;;;;;;;27.65;13.35;;;13.90;99.90;;;;;;5075644;28;20399;-57
2021/10/05 07:04:48;;;;;;;26.25;12.60;;;14.00;99.90;;;;;;5087789;28;20394;-57
2021/10/05 07:07:14;;;;;;;26.05;13.00;;;14.00;99.90;;;;;;5077466;28;20387;-57
2021/10/05 07:09:39;;;;;;;23.95;12.82;;;14.00;99.90;;;;;;5072044;28;20474;-58
2021/10/05 07:12:05;;;;;;;24.97;12.80;;;14.00;99.90;;;;;;5079916;28;20881;-57
2021/10/05 07:14:31;;;;;;;25.80;13.13;;;14.20;99.90;;;;;;5080691;28;20393;-57
2021/10/05 07:17:01;;;;;;;25.27;12.73;;;14.30;99.90;;;;;;5088914;28;20900;-57
2021/10/05 07:19:39;;;;;;;24.52;12.45;;;14.50;99.90;;;;;;5070814;28;20379;-57
2021/10/05 07:22:05;;;;;;;22.60;12.35;;;14.60;99.90;;;;;;5079001;28;20385;-54
2021/10/05 07:24:31;;;;;;;23.52;12.45;;;14.60;99.90;;;;;;5086101;28;20765;-55
2021/10/05 07:26:57;;;;;;;21.08;11.57;;;14.40;99.90;;;;;;5074656;28;20412;-57
2021/10/05 07:29:23;;;;;;;25.03;12.10;;;14.30;99.90;;;;;;5092457;28;20385;-57
2021/10/05 07:31:48;;;;;;;23.10;12.68;;;14.40;99.90;;;;;;5085194;28;20390;-57
2021/10/05 07:34:14;;;;;;;24.57;12.73;;;14.40;99.90;;;;;;5079225;28;20374;-57
2021/10/05 07:36:40;;;;;;;25.65;12.73;;;14.70;99.90;;;;;;5078215;28;20386;-57
2021/10/05 07:39:06;;;;;;;24.47;12.70;;;14.90;99.90;;;;;;5084219;28;20420;-57
2021/10/05 07:41:31;;;;;;;23.00;12.60;;;15.00;99.90;;;;;;5075461;28;20496;-57
2021/10/05 07:43:57;;;;;;;21.55;12.18;;;15.00;99.90;;;;;;5071024;28;20904;-56
2021/10/05 07:46:32;;;;;;;21.80;12.10;;;14.10;99.90;;;;;;5071411;28;20380;-57
2021/10/05 07:49:00;;;;;;;23.30;11.82;;;14.80;99.90;;;;;;5070743;28;20391;-57
2021/10/05 07:51:31;;;;;;;19.63;10.80;;;15.00;99.90;;;;;;5077556;28;20392;-57
2021/10/05 07:53:57;;;;;;;17.77;9.73;;;15.30;99.90;;;;;;5084198;28;20405;-57
2021/10/05 07:56:27;;;;;;;17.10;9.97;;;15.40;99.90;;;;;;5085642;28;20420;-57
2021/10/05 07:58:52;;;;;;;16.15;9.18;;;15.60;99.90;;;;;;5085743;28;20386;-57
2021/10/05 08:01:18;;;;;;;15.63;8.13;;;15.80;99.90;;;;;;5090364;28;20384;-57
2021/10/05 08:03:44;;;;;;;14.10;7.40;;;15.60;99.90;;;;;;5095668;28;20424;-57
2021/10/05 08:06:09;;;;;;;14.77;7.80;;;15.60;99.90;;;;;;5088227;28;20872;-57
2021/10/05 08:08:35;;;;;;;13.60;7.53;;;15.70;99.90;;;;;;5072440;28;20386;-57
2021/10/05 08:11:01;;;;;;;12.32;6.65;;;15.60;99.90;;;;;;5090429;28;20589;-57
2021/10/05 08:13:27;;;;;;;11.32;6.30;;;15.70;99.90;;;;;;5091388;28;20490;-56
2021/10/05 08:15:52;;;;;;;11.38;5.95;;;15.90;99.90;;;;;;5090164;28;20370;-57
2021/10/05 08:18:18;;;;;;;11.30;6.40;;;16.30;99.90;;;;;;5090291;28;20386;-57
2021/10/05 08:20:46;;;;;;;13.35;6.88;;;16.60;99.90;;;;;;5090907;28;20789;-57
2021/10/05 08:23:12;;;;;;;12.45;6.82;;;16.60;99.90;;;;;;5089872;28;20978;-57
2021/10/05 08:25:38;;;;;;;12.07;6.45;;;16.80;99.90;;;;;;5090610;28;20735;-57
2021/10/05 08:28:04;;;;;;;12.40;6.65;;;16.90;99.90;;;;;;5090551;28;20394;-57
2021/10/05 08:30:32;;;;;;;12.23;6.87;;;16.70;99.90;;;;;;5090617;28;20386;-57
2021/10/05 08:32:58;;;;;;;13.23;6.90;;;16.80;99.90;;;;;;5090388;28;20465;-56
2021/10/05 08:35:24;;;;;;;12.02;7.63;;;16.80;99.90;;;;;;5089493;28;20508;-57
2021/10/05 08:37:50;;;;;;;12.73;6.80;;;16.70;99.90;;;;;;5089426;28;20978;-57
2021/10/05 08:40:16;;;;;;;13.07;7.03;;;16.60;99.90;;;;;;5090174;28;20692;-57
2021/10/05 08:42:41;;;;;;;12.52;7.50;;;16.30;99.90;;;;;;5089338;28;20868;-57
2021/10/05 08:45:08;;;;;;;13.80;7.50;;;16.20;99.90;;;;;;5090397;28;20417;-56
2021/10/05 08:47:33;;;;;;;14.57;7.70;;;16.10;99.90;;;;;;5090500;28;20458;-57
2021/10/05 08:50:00;;;;;;;14.00;7.80;;;15.90;99.90;;;;;;5090252;28;20803;-56
2021/10/05 08:52:26;;;;;;;14.35;7.40;;;15.60;99.90;;;;;;5090788;28;20393;-56
2021/10/05 08:54:52;;;;;;;15.20;7.40;;;15.60;99.90;;;;;;5091029;28;20883;-56
2021/10/05 08:57:18;;;;;;;15.07;8.00;;;15.60;99.90;;;;;;5093020;28;20400;-57
2021/10/05 08:59:44;;;;;;;14.68;7.80;;;15.50;99.90;;;;;;5094097;28;20404;-57
2021/10/05 09:02:15;;;;;;;14.50;7.80;;;15.50;99.90;;;;;;5089805;28;20419;-57
2021/10/05 09:04:43;;;;;;;14.20;8.00;;;15.50;99.90;;;;;;5070694;28;20702;-57
2021/10/05 09:07:29;;;;;;;13.40;7.60;;;15.40;99.90;;;;;;5069261;28;20395;-57
2021/10/05 09:09:58;;;;;;;15.30;6.93;;;15.30;99.90;;;;;;5069537;28;20772;-57
2021/10/05 09:12:33;;;;;;;12.97;6.90;;;15.40;99.90;;;;;;5069757;28;20394;-57
2021/10/05 09:15:01;;;;;;;12.80;7.30;;;15.40;99.90;;;;;;5069700;28;20853;-57
2021/10/05 09:17:28;;;;;;;12.80;7.07;;;15.40;99.90;;;;;;5069908;28;20383;-57
2021/10/05 09:19:55;;;;;;;12.65;7.50;;;15.30;99.90;;;;;;5069855;28;20398;-57
2021/10/05 09:22:28;;;;;;;12.65;7.10;;;15.50;99.90;;;;;;5068771;28;20387;-57
2021/10/05 09:24:56;;;;;;;12.70;6.68;;;15.50;99.90;;;;;;5069935;28;20488;-57
2021/10/05 09:27:24;;;;;;;12.60;7.00;;;15.50;99.90;;;;;;5068309;28;20915;-57
2021/10/05 09:29:52;;;;;;;11.45;6.30;;;15.60;99.90;;;;;;5069580;28;20383;-57
2021/10/05 09:32:24;;;;;;;11.50;6.22;;;15.50;99.90;;;;;;5068808;28;21004;-57
2021/10/05 09:34:55;;;;;;;10.38;5.68;;;15.60;99.90;;;;;;5069760;28;20407;-58
2021/10/05 09:37:22;;;;;;;11.77;6.50;;;15.50;99.90;;;;;;5068890;28;20537;-56
2021/10/05 09:39:54;;;;;;;12.53;5.87;;;15.50;99.90;;;;;;5069289;28;20740;-58
2021/10/05 09:42:39;;;;;;;11.70;6.07;;;15.70;99.90;;;;;;5068678;28;20912;-56
2021/10/05 09:45:14;;;;;;;9.43;5.20;;;15.90;99.90;;;;;;5068834;28;20473;-58
2021/10/05 09:47:49;;;;;;;11.43;5.20;;;16.10;99.90;;;;;;5069298;28;20419;-57
2021/10/05 09:50:34;;;;;;;9.70;4.63;;;16.40;99.90;;;;;;5067413;28;20490;-55
2021/10/05 09:53:03;;;;;;;10.70;5.10;;;16.30;99.90;;;;;;5067847;28;20375;-58
2021/10/05 09:55:33;;;;;;;10.35;4.90;;;16.40;99.90;;;;;;5069349;28;20412;-58
2021/10/05 09:57:59;;;;;;;12.40;5.60;;;16.20;99.90;;;;;;5081611;28;20496;-58
2021/10/05 10:00:28;;;;;;;8.63;4.70;;;16.20;99.90;;;;;;5088124;28;20385;-57
2021/10/05 10:02:53;;;;;;;10.70;4.70;;;16.20;99.90;;;;;;5089415;28;20382;-57
2021/10/05 10:05:22;;;;;;;9.05;4.70;;;16.40;99.90;;;;;;5088453;28;20443;-56
2021/10/05 10:07:50;;;;;;;7.95;3.97;;;17.00;99.90;;;;;;5089339;28;20382;-56
2021/10/05 10:10:19;;;;;;;8.88;4.45;;;17.80;99.90;;;;;;5088538;28;20374;-56
2021/10/05 10:12:59;;;;;;;8.65;4.40;;;18.00;99.90;;;;;;5090296;28;20374;-56
2021/10/05 10:15:27;;;;;;;8.32;4.15;;;17.80;99.90;;;;;;5100011;28;20377;-56
2021/10/05 10:18:06;;;;;;;7.70;3.85;;;17.60;99.90;;;;;;5089919;28;20932;-56
2021/10/05 10:20:34;;;;;;;8.77;4.43;;;17.70;99.90;;;;;;5086019;28;20403;-57
2021/10/05 10:22:59;;;;;;;8.75;4.00;;;17.50;99.90;;;;;;5079213;28;20386;-57
2021/10/05 10:25:28;;;;;;;8.20;3.80;;;17.20;99.90;;;;;;5085784;28;20394;-55
2021/10/05 10:27:56;;;;;;;7.78;3.80;;;17.10;99.90;;;;;;5088097;28;20772;-58
2021/10/05 10:30:24;;;;;;;7.30;3.70;;;17.10;99.90;;;;;;5073128;28;20382;-56
2021/10/05 10:33:03;;;;;;;7.47;3.70;;;17.20;99.90;;;;;;5069364;28;20392;-57
2021/10/05 10:35:29;;;;;;;7.30;3.70;;;17.10;99.90;;;;;;5067146;28;20387;-56
2021/10/05 10:37:56;;;;;;;7.17;3.00;;;17.10;99.90;;;;;;5074139;28;20383;-56
2021/10/05 10:40:34;;;;;;;8.02;3.83;;;17.10;99.90;;;;;;5072110;28;20384;-56
2021/10/05 10:43:11;;;;;;;8.10;3.70;;;16.90;99.90;;;;;;5072588;28;20380;-57
2021/10/05 10:45:46;;;;;;;7.90;3.83;;;16.80;99.90;;;;;;5077432;28;20390;-57
2021/10/05 10:48:24;;;;;;;6.78;3.17;;;16.80;99.90;;;;;;5072045;28;20407;-56
2021/10/05 10:50:50;;;;;;;8.90;4.00;;;16.80;99.90;;;;;;5086779;28;20717;-56
2021/10/05 10:53:15;;;;;;;7.07;3.53;;;16.90;99.90;;;;;;5091273;28;20427;-56
2021/10/05 10:55:44;;;;;;;8.05;3.45;;;17.10;99.90;;;;;;5090726;28;20399;-56
2021/10/05 10:58:13;;;;;;;8.18;4.13;;;17.20;99.90;;;;;;5071555;28;20403;-57
2021/10/05 11:00:48;;;;;;;8.25;4.05;;;17.30;99.90;;;;;;5072665;28;20489;-56
2021/10/05 11:03:14;;;;;;;7.53;3.55;;;17.20;99.90;;;;;;5071626;28;20564;-56
2021/10/05 11:05:40;;;;;;;6.80;3.50;;;17.40;99.90;;;;;;5072270;28;20479;-57
2021/10/05 11:08:12;;;;;;;7.10;3.40;;;17.40;99.90;;;;;;5071591;28;20909;-57
2021/10/05 11:10:38;;;;;;;7.80;4.20;;;17.40;99.90;;;;;;5072619;28;20437;-57
2021/10/05 11:13:07;;;;;;;7.63;3.50;;;17.40;99.90;;;;;;5071327;28;20471;-56
2021/10/05 11:15:42;;;;;;;7.17;3.40;;;17.30;99.90;;;;;;5072243;28;20415;-55
2021/10/05 11:18:09;;;;;;;6.50;3.10;;;17.30;99.90;;;;;;5070776;28;20881;-60
2021/10/05 11:20:37;;;;;;;6.80;3.20;;;17.50;99.90;;;;;;5072422;28;20392;-55
2021/10/05 11:23:03;;;;;;;6.15;2.80;;;18.00;99.90;;;;;;5070927;28;20466;-56
2021/10/05 11:25:30;;;;;;;6.97;3.30;;;18.00;99.90;;;;;;5089547;28;20382;-55
2021/10/05 11:28:05;;;;;;;7.30;3.33;;;18.20;99.90;;;;;;5090573;28;20386;-56
2021/10/05 11:30:31;;;;;;;6.97;3.28;;;18.30;99.90;;;;;;5091773;28;20386;-55
2021/10/05 11:32:57;;;;;;;6.97;3.55;;;17.90;99.90;;;;;;5091505;28;20389;-55
2021/10/05 11:35:23;;;;;;;6.68;3.58;;;17.50;99.90;;;;;;5090997;28;20459;-56
2021/10/05 11:37:49;;;;;;;6.60;3.10;;;17.40;99.90;;;;;;5090985;28;20383;-57
2021/10/05 11:40:14;;;;;;;6.38;3.30;;;17.40;99.90;;;;;;5090852;28;20382;-55
2021/10/05 11:42:40;;;;;;;6.38;3.10;;;17.50;99.90;;;;;;5090889;28;20374;-55
2021/10/05 11:45:08;;;;;;;6.10;2.70;;;17.50;99.90;;;;;;5090640;28;20434;-57
2021/10/05 11:47:34;;;;;;;5.20;2.10;;;17.50;99.90;;;;;;5091275;28;20932;-56
2021/10/05 11:50:10;;;;;;;5.57;2.40;;;17.40;99.90;;;;;;5089173;28;20502;-57
2021/10/05 11:52:39;;;;;;;5.93;2.58;;;17.50;99.90;;;;;;5088878;28;20385;-57
2021/10/05 11:55:05;;;;;;;5.60;2.28;;;17.50;99.90;;;;;;5067719;28;20392;-57
2021/10/05 11:57:34;;;;;;;5.15;2.20;;;17.20;99.90;;;;;;5079689;28;20524;-57
2021/10/05 12:00:10;;;;;;;5.10;1.85;;;17.20;99.90;;;;;;5089970;28;20426;-57
2021/10/05 12:02:41;;;;;;;5.40;1.80;;;16.90;99.90;;;;;;5091507;28;20408;-57
2021/10/05 12:05:07;;;;;;;5.20;2.20;;;16.90;99.90;;;;;;5089375;28;20428;-57
2021/10/05 12:07:37;;;;;;;4.90;1.80;;;17.00;99.90;;;;;;5091275;28;20394;-56
2021/10/05 12:10:07;;;;;;;5.10;2.30;;;16.90;99.90;;;;;;5091280;28;20421;-56
2021/10/05 12:12:40;;;;;;;5.40;2.10;;;17.10;99.90;;;;;;5089124;28;20390;-57
2021/10/05 12:15:15;;;;;;;4.93;1.90;;;17.10;99.90;;;;;;5090490;28;20394;-57
2021/10/05 12:17:42;;;;;;;5.72;2.15;;;17.40;99.90;;;;;;5085512;28;20409;-56
2021/10/05 12:20:11;;;;;;;5.30;1.80;;;17.60;99.90;;;;;;5085432;28;20392;-57
2021/10/05 12:22:42;;;;;;;5.43;1.77;;;17.60;99.90;;;;;;5076252;28;20451;-57
2021/10/05 12:25:17;;;;;;;4.30;1.60;;;17.70;99.90;;;;;;5078700;28;20413;-57
2021/10/05 12:27:47;;;;;;;6.25;1.80;;;17.50;99.90;;;;;;5073059;28;20524;-56
2021/10/05 12:30:19;;;;;;;5.30;1.70;;;17.70;99.90;;;;;;5107945;27;20406;-56
2021/10/05 12:32:51;;;;;;;4.80;1.50;;;17.90;99.90;;;;;;5072590;28;20392;-56
2021/10/05 12:35:36;;;;;;;4.70;1.58;;;17.80;99.90;;;;;;5076396;28;20410;-56
2021/10/05 12:38:22;;;;;;;7.72;1.70;;;17.70;99.90;;;;;;5090509;28;20381;-56
2021/10/05 12:40:48;;;;;;;4.43;1.40;;;17.70;99.90;;;;;;5076526;28;20512;-55